createdAt,value
2018-06-27T00:01:32.507Z,99.90
2018-06-27T00:04:30.542Z,99.90
2018-06-27T00:07:29.618Z,99.90
2018-06-27T00:10:26.684Z,99.90
2018-06-27T00:13:24.723Z,99.90
2018-06-27T00:16:22.872Z,99.90
2018-06-27T00:19:20.841Z,99.90
2018-06-27T00:22:18.786Z,99.90
2018-06-27T00:25:16.816Z,99.90
2018-06-27T00:28:14.858Z,99.90
2018-06-27T00:31:12.962Z,99.90
2018-06-27T00:34:11.051Z,99.90
2018-06-27T00:37:08.553Z,99.90
2018-06-27T00:40:05.802Z,99.90
2018-06-27T00:43:03.824Z,99.90
2018-06-27T00:46:01.347Z,99.90
2018-06-27T00:48:58.631Z,99.90
2018-06-27T00:51:56.721Z,99.90
2018-06-27T00:54:54.905Z,99.90
2018-06-27T00:57:52.229Z,99.90
2018-06-27T01:00:49.783Z,99.90
2018-06-27T01:03:46.933Z,99.90
2018-06-27T01:06:44.425Z,99.90
2018-06-27T01:12:31.718Z,99.90
2018-06-27T01:15:29.005Z,99.90
2018-06-27T01:18:27.117Z,99.90
2018-06-27T01:21:24.213Z,99.90
2018-06-27T01:24:21.481Z,99.90
2018-06-27T01:27:18.884Z,99.90
2018-06-27T01:30:16.947Z,99.90
2018-06-27T01:33:14.988Z,99.90
2018-06-27T01:36:12.172Z,99.90
2018-06-27T01:39:09.585Z,99.90
2018-06-27T01:42:07.812Z,99.90
2018-06-27T01:45:05.034Z,99.90
2018-06-27T01:48:02.374Z,99.90
2018-06-27T01:50:59.750Z,99.90
2018-06-27T01:53:57.065Z,99.90
2018-06-27T01:56:55.027Z,99.90
2018-06-27T01:59:52.143Z,99.90
2018-06-27T02:02:50.264Z,99.90
2018-06-27T02:05:48.095Z,99.90
2018-06-27T02:08:46.051Z,99.90
2018-06-27T02:11:43.588Z,99.90
2018-06-27T02:14:40.814Z,99.90
2018-06-27T02:17:38.179Z,99.90
2018-06-27T02:20:36.387Z,99.90
2018-06-27T02:23:34.291Z,99.90
2018-06-27T02:26:33.268Z,99.90
2018-06-27T02:29:31.230Z,99.90
2018-06-27T02:32:28.551Z,99.90
2018-06-27T02:35:25.768Z,99.90
2018-06-27T02:38:23.309Z,99.90
2018-06-27T02:41:21.321Z,99.90
2018-06-27T02:44:19.206Z,99.90
2018-06-27T02:47:17.368Z,99.90
2018-06-27T02:50:14.590Z,99.90
2018-06-27T02:53:12.459Z,99.90
2018-06-27T02:56:10.679Z,99.90
2018-06-27T02:59:08.224Z,99.90
2018-06-27T03:02:05.563Z,99.90
2018-06-27T03:05:03.675Z,99.90
2018-06-27T03:08:00.807Z,99.90
2018-06-27T03:10:58.327Z,99.90
2018-06-27T03:13:56.774Z,99.90
2018-06-27T03:16:53.896Z,99.90
2018-06-27T03:19:51.332Z,99.90
2018-06-27T03:22:48.586Z,99.90
2018-06-27T03:25:46.060Z,99.90
2018-06-27T03:28:44.281Z,99.90
2018-06-27T03:31:41.973Z,99.90
2018-06-27T03:34:39.381Z,99.90
2018-06-27T03:37:36.635Z,99.90
2018-06-27T03:40:34.643Z,99.90
2018-06-27T03:43:32.727Z,99.90
2018-06-27T03:46:30.757Z,99.90
2018-06-27T03:49:28.891Z,99.90
2018-06-27T03:52:27.026Z,99.90
2018-06-27T03:55:24.996Z,99.90
2018-06-27T03:58:23.179Z,99.90
2018-06-27T04:01:21.203Z,99.90
2018-06-27T04:04:19.106Z,99.90
2018-06-27T04:07:17.243Z,99.90
2018-06-27T04:10:16.343Z,99.90
2018-06-27T04:13:13.692Z,99.90
2018-06-27T04:16:11.001Z,99.90
2018-06-27T04:19:08.428Z,99.90
2018-06-27T04:22:05.856Z,99.90
2018-06-27T04:25:03.303Z,99.90
2018-06-27T04:28:00.578Z,99.90
2018-06-27T04:30:57.699Z,99.90
2018-06-27T04:33:55.226Z,99.90
2018-06-27T04:36:52.436Z,99.90
2018-06-27T04:39:50.558Z,99.90
2018-06-27T04:42:47.840Z,99.90
2018-06-27T04:45:45.806Z,99.90
2018-06-27T04:48:43.253Z,99.90
2018-06-27T04:51:41.362Z,99.90
2018-06-27T04:54:39.200Z,99.90
2018-06-27T04:57:36.502Z,99.90
2018-06-27T05:00:33.712Z,99.90
2018-06-27T05:03:31.687Z,99.90
2018-06-27T05:06:29.503Z,99.90
2018-06-27T05:09:28.755Z,99.90
2018-06-27T05:12:26.868Z,99.90
2018-06-27T05:15:24.919Z,99.90
2018-06-27T05:18:22.165Z,99.90
2018-06-27T05:21:19.336Z,99.90
2018-06-27T05:24:16.749Z,99.90
2018-06-27T05:27:14.142Z,99.90
2018-06-27T05:30:11.280Z,99.90
2018-06-27T05:33:08.616Z,99.90
2018-06-27T05:36:06.688Z,99.90
2018-06-27T05:39:04.428Z,99.90
2018-06-27T05:42:01.555Z,99.90
2018-06-27T05:44:59.697Z,99.90
2018-06-27T05:47:57.824Z,99.90
2018-06-27T05:50:55.227Z,99.90
2018-06-27T05:53:52.470Z,99.90
2018-06-27T05:56:49.692Z,99.90
2018-06-27T05:59:47.831Z,99.90
2018-06-27T06:02:45.895Z,99.90
2018-06-27T06:05:43.830Z,99.70
2018-06-27T06:08:41.884Z,99.70
2018-06-27T06:11:39.160Z,99.30
2018-06-27T06:14:36.368Z,99.20
2018-06-27T06:17:35.294Z,99.20
2018-06-27T06:20:33.466Z,99.00
2018-06-27T06:23:31.448Z,98.50
2018-06-27T06:26:29.746Z,98.00
2018-06-27T06:29:27.941Z,97.50
2018-06-27T06:32:26.002Z,96.80
2018-06-27T06:35:24.868Z,96.40
2018-06-27T06:38:23.074Z,96.20
2018-06-27T06:41:21.349Z,95.90
2018-06-27T06:44:19.532Z,95.30
2018-06-27T06:47:17.739Z,95.30
2018-06-27T06:50:14.992Z,94.90
2018-06-27T06:53:12.239Z,94.60
2018-06-27T06:56:10.490Z,94.40
2018-06-27T06:59:07.859Z,94.20
2018-06-27T07:02:05.384Z,94.10
2018-06-27T07:05:03.696Z,92.40
2018-06-27T07:08:01.870Z,88.20
2018-06-27T07:11:00.889Z,82.00
2018-06-27T07:13:59.075Z,78.10
2018-06-27T07:16:57.067Z,75.20
2018-06-27T07:19:54.416Z,75.00
2018-06-27T07:22:54.471Z,70.40
2018-06-27T07:25:51.704Z,68.70
2018-06-27T07:28:48.878Z,67.10
2018-06-27T07:34:36.352Z,67.40
2018-06-27T07:37:34.458Z,66.80
2018-06-27T07:40:31.754Z,63.10
2018-06-27T07:43:29.382Z,63.30
2018-06-27T07:46:27.466Z,64.50
2018-06-27T07:49:25.565Z,64.50
2018-06-27T07:52:24.096Z,63.60
2018-06-27T07:55:21.331Z,64.70
2018-06-27T07:58:19.455Z,61.40
2018-06-27T08:01:17.014Z,59.60
2018-06-27T08:04:14.667Z,57.90
2018-06-27T08:07:11.880Z,56.40
2018-06-27T08:10:09.973Z,54.50
2018-06-27T08:13:07.965Z,55.20
2018-06-27T08:16:05.334Z,54.20
2018-06-27T08:19:02.961Z,55.30
2018-06-27T08:22:01.939Z,55.90
2018-06-27T08:24:59.241Z,57.20
2018-06-27T08:27:57.250Z,58.10
2018-06-27T08:30:55.456Z,56.30
2018-06-27T08:33:52.688Z,56.50
2018-06-27T08:36:50.747Z,56.20
2018-06-27T08:39:47.914Z,53.60
2018-06-27T08:42:45.895Z,53.10
2018-06-27T08:45:44.746Z,53.40
2018-06-27T08:48:42.074Z,54.20
2018-06-27T08:54:29.437Z,55.30
2018-06-27T08:57:26.802Z,53.20
2018-06-27T09:00:25.055Z,52.20
2018-06-27T09:03:22.365Z,52.40
2018-06-27T09:06:19.623Z,52.90
2018-06-27T09:09:19.153Z,52.40
2018-06-27T09:12:16.407Z,51.20
2018-06-27T09:15:14.519Z,51.10
2018-06-27T09:18:11.847Z,52.80
2018-06-27T09:21:10.087Z,51.90
2018-06-27T09:24:07.374Z,50.40
2018-06-27T09:27:04.881Z,50.70
2018-06-27T09:30:02.990Z,54.10
2018-06-27T09:33:00.357Z,54.10
2018-06-27T09:35:58.584Z,53.70
2018-06-27T09:38:56.770Z,52.80
2018-06-27T09:41:54.835Z,53.00
2018-06-27T09:44:51.925Z,53.40
2018-06-27T09:47:50.006Z,52.70
2018-06-27T09:50:47.971Z,51.80
2018-06-27T09:53:46.006Z,50.00
2018-06-27T09:56:45.145Z,50.10
2018-06-27T09:59:43.095Z,48.60
2018-06-27T10:02:41.054Z,48.80
2018-06-27T10:05:39.034Z,49.70
2018-06-27T10:08:36.204Z,49.30
2018-06-27T10:11:34.609Z,49.00
2018-06-27T10:14:32.564Z,50.20
2018-06-27T10:17:29.754Z,49.10
2018-06-27T10:20:27.164Z,50.70
2018-06-27T10:23:25.446Z,50.90
2018-06-27T10:26:22.826Z,51.10
2018-06-27T10:29:20.087Z,51.20
2018-06-27T10:32:18.242Z,51.20
2018-06-27T10:35:15.585Z,51.80
2018-06-27T10:38:12.761Z,51.10
2018-06-27T10:41:10.177Z,52.10
2018-06-27T10:44:08.341Z,53.70
2018-06-27T10:47:06.025Z,53.70
2018-06-27T10:50:04.180Z,53.80
2018-06-27T10:53:01.305Z,53.80
2018-06-27T10:55:59.399Z,53.10
2018-06-27T10:58:57.416Z,53.80
2018-06-27T11:01:55.508Z,53.20
2018-06-27T11:04:52.884Z,53.20
2018-06-27T11:07:50.987Z,55.20
2018-06-27T11:10:48.955Z,55.80
2018-06-27T11:13:46.038Z,56.40
2018-06-27T11:16:43.383Z,56.00
2018-06-27T11:19:41.417Z,55.50
2018-06-27T11:22:38.673Z,55.70
2018-06-27T11:25:36.903Z,55.70
2018-06-27T11:28:34.722Z,54.70
2018-06-27T11:31:32.024Z,53.90
2018-06-27T11:34:31.050Z,55.50
2018-06-27T11:37:29.170Z,55.60
2018-06-27T11:40:26.631Z,54.10
2018-06-27T11:43:24.167Z,53.60
2018-06-27T11:46:21.528Z,53.00
2018-06-27T11:49:18.786Z,52.40
2018-06-27T11:52:16.815Z,52.70
2018-06-27T11:55:18.792Z,51.40
2018-06-27T11:58:16.711Z,53.60
2018-06-27T12:01:14.671Z,54.40
2018-06-27T12:04:12.722Z,55.90
2018-06-27T12:07:10.135Z,55.40
2018-06-27T12:10:08.095Z,53.90
2018-06-27T12:13:05.203Z,53.70
2018-06-27T12:16:03.220Z,53.60
2018-06-27T12:19:01.316Z,54.20
2018-06-27T12:21:59.551Z,53.30
2018-06-27T12:24:56.842Z,52.60
2018-06-27T12:27:55.033Z,51.60
2018-06-27T12:30:53.187Z,50.60
2018-06-27T12:33:50.465Z,52.30
2018-06-27T12:36:47.768Z,53.40
2018-06-27T12:39:45.286Z,53.50
2018-06-27T12:42:51.369Z,52.60
2018-06-27T12:45:48.734Z,52.10
2018-06-27T12:48:46.874Z,53.70
2018-06-27T12:51:44.194Z,53.90
2018-06-27T12:54:41.741Z,53.70
2018-06-27T12:57:40.847Z,54.20
2018-06-27T13:00:39.213Z,53.00
2018-06-27T13:03:37.241Z,52.10
2018-06-27T13:06:34.673Z,52.80
2018-06-27T13:09:32.713Z,52.50
2018-06-27T13:12:30.735Z,51.40
2018-06-27T13:15:29.691Z,50.40
2018-06-27T13:18:28.727Z,51.20
2018-06-27T13:21:25.842Z,54.00
2018-06-27T13:24:23.920Z,54.30
2018-06-27T13:27:23.004Z,52.70
2018-06-27T13:30:20.119Z,51.90
2018-06-27T13:33:18.624Z,52.20
2018-06-27T13:39:06.177Z,52.60
2018-06-27T13:42:03.469Z,53.60
2018-06-27T13:45:00.707Z,53.40
2018-06-27T13:47:58.120Z,53.20
2018-06-27T13:50:55.655Z,53.40
2018-06-27T13:53:53.446Z,53.10
2018-06-27T13:56:51.582Z,54.00
2018-06-27T13:59:49.036Z,53.20
2018-06-27T14:02:46.740Z,52.90
2018-06-27T14:05:44.779Z,52.70
2018-06-27T14:08:43.045Z,51.70
2018-06-27T14:11:40.419Z,51.10
2018-06-27T14:14:38.519Z,50.30
2018-06-27T14:17:36.462Z,50.30
2018-06-27T14:20:35.622Z,51.20
2018-06-27T14:23:32.839Z,51.70
2018-06-27T14:29:21.158Z,56.20
2018-06-27T14:32:19.259Z,57.40
2018-06-27T14:35:17.175Z,57.80
2018-06-27T14:38:15.046Z,59.40
2018-06-27T14:41:12.322Z,61.00
2018-06-27T14:44:09.523Z,62.20
2018-06-27T14:47:07.627Z,61.60
2018-06-27T14:50:05.914Z,63.30
2018-06-27T14:53:03.767Z,64.10
2018-06-27T14:56:01.061Z,66.20
2018-06-27T14:58:59.453Z,65.70
2018-06-27T15:01:57.045Z,65.90
2018-06-27T15:04:54.994Z,66.20
2018-06-27T15:07:52.470Z,68.10
2018-06-27T15:10:49.668Z,68.80
2018-06-27T15:13:47.722Z,69.70
2018-06-27T15:16:45.017Z,68.80
2018-06-27T15:19:42.296Z,68.40
2018-06-27T15:22:39.545Z,69.30
2018-06-27T15:25:36.938Z,69.20
2018-06-27T15:28:35.129Z,69.40
2018-06-27T15:31:33.322Z,70.20
2018-06-27T15:34:31.391Z,70.20
2018-06-27T15:37:29.540Z,70.50
2018-06-27T15:40:27.869Z,69.80
2018-06-27T15:43:25.957Z,71.00
2018-06-27T15:46:24.042Z,71.90
2018-06-27T15:49:22.303Z,72.70
2018-06-27T15:55:10.627Z,73.40
2018-06-27T16:17:34.047Z,73.80
2018-06-27T16:20:31.559Z,74.20
2018-06-27T16:23:28.844Z,79.90
2018-06-27T16:26:26.931Z,81.70
2018-06-27T16:29:24.310Z,83.60
2018-06-27T16:32:22.403Z,85.00
2018-06-27T16:35:20.579Z,85.70
2018-06-27T16:38:18.063Z,86.40
2018-06-27T16:41:17.065Z,87.40
2018-06-27T16:44:15.225Z,87.80
2018-06-27T16:47:14.244Z,87.80
2018-06-27T16:50:12.239Z,88.00
2018-06-27T16:56:00.276Z,89.20
2018-06-27T16:58:58.263Z,87.60
2018-06-27T17:01:55.682Z,87.60
2018-06-27T17:04:53.671Z,87.90
2018-06-27T17:07:50.901Z,88.70
2018-06-27T17:10:48.984Z,89.10
2018-06-27T17:13:46.479Z,88.70
2018-06-27T17:16:44.527Z,88.60
2018-06-27T17:19:41.747Z,89.00
2018-06-27T17:22:38.893Z,90.10
2018-06-27T17:25:37.067Z,90.50
2018-06-27T17:28:35.167Z,91.20
2018-06-27T17:31:32.829Z,91.60
2018-06-27T17:34:30.894Z,92.20
2018-06-27T17:37:28.112Z,92.30
2018-06-27T17:40:25.300Z,92.70
2018-06-27T17:43:23.510Z,92.80
2018-06-27T17:46:21.884Z,93.00
2018-06-27T17:49:20.047Z,93.30
2018-06-27T17:52:17.266Z,93.30
2018-06-27T17:55:15.217Z,93.80
2018-06-27T17:58:14.444Z,94.10
2018-06-27T18:01:12.514Z,94.50
2018-06-27T18:04:10.615Z,94.90
2018-06-27T18:07:08.503Z,94.90
2018-06-27T18:10:06.547Z,95.50
2018-06-27T18:13:04.617Z,95.60
2018-06-27T18:16:02.750Z,96.00
2018-06-27T18:18:59.922Z,96.30
2018-06-27T18:21:57.363Z,96.60
2018-06-27T18:24:55.227Z,97.10
2018-06-27T18:27:53.382Z,97.40
2018-06-27T18:30:50.742Z,97.70
2018-06-27T18:33:47.964Z,97.70
2018-06-27T18:36:45.264Z,97.90
2018-06-27T18:39:42.738Z,97.80
2018-06-27T18:42:40.851Z,97.80
2018-06-27T18:45:39.019Z,98.00
2018-06-27T18:48:36.354Z,98.20
2018-06-27T18:51:34.443Z,98.50
2018-06-27T18:54:31.694Z,98.70
2018-06-27T18:57:29.112Z,99.00
2018-06-27T19:00:27.507Z,99.30
2018-06-27T19:06:16.125Z,99.30
2018-06-27T19:09:13.574Z,99.10
2018-06-27T19:12:11.704Z,99.00
2018-06-27T19:15:09.630Z,98.90
2018-06-27T19:18:07.645Z,99.20
2018-06-27T19:21:04.877Z,99.30
2018-06-27T19:24:02.094Z,99.40
2018-06-27T19:27:00.176Z,99.80
2018-06-27T19:29:58.303Z,99.90
2018-06-27T19:32:55.613Z,99.90
2018-06-27T19:35:54.155Z,99.90
2018-06-27T19:38:52.485Z,99.90
2018-06-27T19:41:50.494Z,99.90
2018-06-27T19:44:48.645Z,99.90
2018-06-27T19:47:45.987Z,99.90
2018-06-27T19:50:43.146Z,99.90
2018-06-27T19:53:40.271Z,99.90
2018-06-27T19:56:38.470Z,99.90
2018-06-27T19:59:35.776Z,99.80
2018-06-27T20:02:33.301Z,99.10
2018-06-27T20:05:31.397Z,98.00
2018-06-27T20:08:28.628Z,95.70
2018-06-27T20:11:25.989Z,94.50
2018-06-27T20:14:24.306Z,93.00
2018-06-27T20:17:21.607Z,92.70
2018-06-27T20:20:20.732Z,92.10
2018-06-27T20:23:18.891Z,91.80
2018-06-27T20:26:16.884Z,92.20
2018-06-27T20:29:14.891Z,92.60
2018-06-27T20:32:12.995Z,93.00
2018-06-27T20:35:10.223Z,93.10
2018-06-27T20:38:08.438Z,93.40
2018-06-27T20:41:06.363Z,93.60
2018-06-27T20:44:04.463Z,93.50
2018-06-27T20:47:01.833Z,93.50
2018-06-27T20:49:59.236Z,93.40
2018-06-27T20:52:56.503Z,94.00
2018-06-27T20:55:53.714Z,93.70
2018-06-27T20:58:51.772Z,93.90
2018-06-27T21:01:49.011Z,94.00
2018-06-27T21:04:46.198Z,94.20
2018-06-27T21:07:43.397Z,94.30
2018-06-27T21:10:40.553Z,94.80
2018-06-27T21:13:38.975Z,94.90
2018-06-27T21:16:37.116Z,95.10
2018-06-27T21:19:34.655Z,95.50
2018-06-27T21:22:31.943Z,95.60
2018-06-27T21:25:29.909Z,95.90
2018-06-27T21:28:27.201Z,96.00
2018-06-27T21:31:24.982Z,96.30
2018-06-27T21:34:23.041Z,96.70
2018-06-27T21:37:21.028Z,96.70
2018-06-27T21:40:19.116Z,97.10
2018-06-27T21:43:16.321Z,97.10
2018-06-27T21:46:14.380Z,97.30
2018-06-27T21:49:11.606Z,97.70
2018-06-27T21:52:09.375Z,97.90
2018-06-27T21:55:06.747Z,98.30
2018-06-27T21:58:04.066Z,98.50
2018-06-27T22:01:02.285Z,98.70
2018-06-27T22:03:59.391Z,99.00
2018-06-27T22:06:56.959Z,99.00
2018-06-27T22:09:55.163Z,99.00
2018-06-27T22:12:52.871Z,99.30
2018-06-27T22:15:50.510Z,99.60
2018-06-27T22:21:38.481Z,99.90
2018-06-27T22:24:35.907Z,99.80
2018-06-27T22:27:33.151Z,99.80
2018-06-27T22:30:31.203Z,99.90
2018-06-27T22:33:28.727Z,99.80
2018-06-27T22:36:26.017Z,99.90
2018-06-27T22:39:24.101Z,99.90
2018-06-27T22:42:21.906Z,99.90
2018-06-27T22:45:19.097Z,99.90
2018-06-27T22:48:16.350Z,99.90
2018-06-27T22:51:13.551Z,99.80
2018-06-27T22:54:11.751Z,99.90
2018-06-27T22:57:09.858Z,99.90
2018-06-27T23:00:07.197Z,99.50
2018-06-27T23:03:05.338Z,99.40
2018-06-27T23:06:02.449Z,99.20
2018-06-27T23:09:00.520Z,99.20
2018-06-27T23:12:01.472Z,99.50
2018-06-27T23:14:58.577Z,99.40
2018-06-27T23:17:55.892Z,98.90
2018-06-27T23:20:53.228Z,98.70
2018-06-27T23:23:50.379Z,98.50
2018-06-27T23:26:47.956Z,98.40
2018-06-27T23:29:45.216Z,97.90
2018-06-27T23:32:42.495Z,97.80
2018-06-27T23:35:39.840Z,97.70
2018-06-27T23:38:37.713Z,97.90
2018-06-27T23:41:35.161Z,97.50
2018-06-27T23:44:33.235Z,97.30
2018-06-27T23:47:31.351Z,97.10
2018-06-27T23:50:29.330Z,97.10
2018-06-27T23:53:27.372Z,97.10
2018-06-27T23:56:25.560Z,97.00
2018-06-27T23:59:23.716Z,97.00
